sensor_id;sensor_type;location;lat;lon;timestamp;temperature;humidity
15967;DHT22;15175;48.154;11.534;2023-08-24T00:00:23;25.90;99.90
15967;DHT22;15175;48.154;11.534;2023-08-24T00:02:50;25.80;99.90
15967;DHT22;15175;48.154;11.534;2023-08-24T00:05:17;25.90;99.90
15967;DHT22;15175;48.154;11.534;2023-08-24T00:07:44;25.90;99.90
15967;DHT22;15175;48.154;11.534;2023-08-24T00:10:14;25.80;99.90
15967;DHT22;15175;48.154;11.534;2023-08-24T00:12:41;25.70;99.90
15967;DHT22;15175;48.154;11.534;2023-08-24T00:15:10;25.70;99.90
15967;DHT22;15175;48.154;11.534;2023-08-24T00:17:37;25.60;99.90
15967;DHT22;15175;48.154;11.534;2023-08-24T00:20:07;25.50;99.90
15967;DHT22;15175;48.154;11.534;2023-08-24T00:22:37;25.60;99.90
15967;DHT22;15175;48.154;11.534;2023-08-24T00:25:05;25.50;99.90
15967;DHT22;15175;48.154;11.534;2023-08-24T00:27:33;25.50;99.90
15967;DHT22;15175;48.154;11.534;2023-08-24T00:30:02;25.50;99.90
15967;DHT22;15175;48.154;11.534;2023-08-24T00:32:31;25.50;99.90
15967;DHT22;15175;48.154;11.534;2023-08-24T00:34:59;25.50;99.90
15967;DHT22;15175;48.154;11.534;2023-08-24T00:37:27;25.50;99.90
15967;DHT22;15175;48.154;11.534;2023-08-24T00:39:55;25.40;99.90
15967;DHT22;15175;48.154;11.534;2023-08-24T00:42:23;25.40;99.90
15967;DHT22;15175;48.154;11.534;2023-08-24T00:44:50;25.40;99.90
15967;DHT22;15175;48.154;11.534;2023-08-24T00:47:17;25.40;99.90
15967;DHT22;15175;48.154;11.534;2023-08-24T00:49:47;25.40;99.90
15967;DHT22;15175;48.154;11.534;2023-08-24T00:52:14;25.30;99.90
15967;DHT22;15175;48.154;11.534;2023-08-24T00:54:41;25.30;99.90
15967;DHT22;15175;48.154;11.534;2023-08-24T00:57:09;25.20;99.90
15967;DHT22;15175;48.154;11.534;2023-08-24T00:59:37;25.20;99.90
15967;DHT22;15175;48.154;11.534;2023-08-24T01:02:04;25.10;99.90
15967;DHT22;15175;48.154;11.534;2023-08-24T01:04:32;25.10;99.90
15967;DHT22;15175;48.154;11.534;2023-08-24T01:07:02;25.10;99.90
15967;DHT22;15175;48.154;11.534;2023-08-24T01:09:30;25.00;99.90
15967;DHT22;15175;48.154;11.534;2023-08-24T01:12:00;25.00;99.90
15967;DHT22;15175;48.154;11.534;2023-08-24T01:14:37;25.00;99.90
15967;DHT22;15175;48.154;11.534;2023-08-24T01:17:09;25.00;99.90
15967;DHT22;15175;48.154;11.534;2023-08-24T01:19:41;25.00;99.90
15967;DHT22;15175;48.154;11.534;2023-08-24T01:22:31;25.00;99.90
15967;DHT22;15175;48.154;11.534;2023-08-24T01:25:04;24.90;99.90
15967;DHT22;15175;48.154;11.534;2023-08-24T01:27:36;24.90;99.90
15967;DHT22;15175;48.154;11.534;2023-08-24T01:30:03;24.90;99.90
15967;DHT22;15175;48.154;11.534;2023-08-24T01:32:31;24.90;99.90
15967;DHT22;15175;48.154;11.534;2023-08-24T01:34:59;24.90;99.90
15967;DHT22;15175;48.154;11.534;2023-08-24T01:37:26;24.90;99.90
15967;DHT22;15175;48.154;11.534;2023-08-24T01:40:00;24.90;99.90
15967;DHT22;15175;48.154;11.534;2023-08-24T01:42:35;24.90;99.90
15967;DHT22;15175;48.154;11.534;2023-08-24T01:45:06;24.90;99.90
15967;DHT22;15175;48.154;11.534;2023-08-24T01:47:35;24.90;99.90
15967;DHT22;15175;48.154;11.534;2023-08-24T01:50:04;24.90;99.90
15967;DHT22;15175;48.154;11.534;2023-08-24T01:52:32;24.90;99.90
15967;DHT22;15175;48.154;11.534;2023-08-24T01:55:02;24.80;99.90
15967;DHT22;15175;48.154;11.534;2023-08-24T01:57:29;24.80;99.90
15967;DHT22;15175;48.154;11.534;2023-08-24T01:59:58;24.80;99.90
15967;DHT22;15175;48.154;11.534;2023-08-24T02:02:25;24.80;99.90
15967;DHT22;15175;48.154;11.534;2023-08-24T02:04:53;24.70;99.90
15967;DHT22;15175;48.154;11.534;2023-08-24T02:07:20;24.70;99.90
15967;DHT22;15175;48.154;11.534;2023-08-24T02:09:47;24.70;99.90
15967;DHT22;15175;48.154;11.534;2023-08-24T02:12:14;24.70;99.90
15967;DHT22;15175;48.154;11.534;2023-08-24T02:14:41;24.70;99.90
15967;DHT22;15175;48.154;11.534;2023-08-24T02:17:10;24.60;99.90
15967;DHT22;15175;48.154;11.534;2023-08-24T02:19:37;24.60;99.90
15967;DHT22;15175;48.154;11.534;2023-08-24T02:22:04;24.60;99.90
15967;DHT22;15175;48.154;11.534;2023-08-24T02:24:31;24.70;99.90
15967;DHT22;15175;48.154;11.534;2023-08-24T02:26:58;24.60;99.90
15967;DHT22;15175;48.154;11.534;2023-08-24T02:29:25;24.60;99.90
15967;DHT22;15175;48.154;11.534;2023-08-24T02:31:53;24.60;99.90
15967;DHT22;15175;48.154;11.534;2023-08-24T02:34:22;24.50;99.90
15967;DHT22;15175;48.154;11.534;2023-08-24T02:36:49;24.50;99.90
15967;DHT22;15175;48.154;11.534;2023-08-24T02:39:18;24.50;99.90
15967;DHT22;15175;48.154;11.534;2023-08-24T02:41:45;24.50;99.90
15967;DHT22;15175;48.154;11.534;2023-08-24T02:44:13;24.50;99.90
15967;DHT22;15175;48.154;11.534;2023-08-24T02:46:42;24.40;99.90
15967;DHT22;15175;48.154;11.534;2023-08-24T02:49:11;24.40;99.90
15967;DHT22;15175;48.154;11.534;2023-08-24T02:51:39;24.40;99.90
15967;DHT22;15175;48.154;11.534;2023-08-24T02:54:06;24.40;99.90
15967;DHT22;15175;48.154;11.534;2023-08-24T02:56:33;24.50;99.90
15967;DHT22;15175;48.154;11.534;2023-08-24T02:59:00;24.50;99.90
15967;DHT22;15175;48.154;11.534;2023-08-24T03:01:27;24.40;99.90
15967;DHT22;15175;48.154;11.534;2023-08-24T03:03:54;24.40;99.90
15967;DHT22;15175;48.154;11.534;2023-08-24T03:06:23;24.30;99.90
15967;DHT22;15175;48.154;11.534;2023-08-24T03:08:52;24.30;99.90
15967;DHT22;15175;48.154;11.534;2023-08-24T03:11:19;24.30;99.90
15967;DHT22;15175;48.154;11.534;2023-08-24T03:13:46;24.30;99.90
15967;DHT22;15175;48.154;11.534;2023-08-24T03:16:13;24.30;99.90
15967;DHT22;15175;48.154;11.534;2023-08-24T03:18:40;24.30;99.90
15967;DHT22;15175;48.154;11.534;2023-08-24T03:21:07;24.30;99.90
15967;DHT22;15175;48.154;11.534;2023-08-24T03:23:35;24.20;99.90
15967;DHT22;15175;48.154;11.534;2023-08-24T03:26:04;24.20;99.90
15967;DHT22;15175;48.154;11.534;2023-08-24T03:28:32;24.20;99.90
15967;DHT22;15175;48.154;11.534;2023-08-24T03:31:00;24.10;99.90
15967;DHT22;15175;48.154;11.534;2023-08-24T03:33:28;24.20;99.90
15967;DHT22;15175;48.154;11.534;2023-08-24T03:35:56;24.10;99.90
15967;DHT22;15175;48.154;11.534;2023-08-24T03:38:23;24.10;99.90
15967;DHT22;15175;48.154;11.534;2023-08-24T03:40:51;24.10;99.90
15967;DHT22;15175;48.154;11.534;2023-08-24T03:43:20;24.10;99.90
15967;DHT22;15175;48.154;11.534;2023-08-24T03:45:47;24.10;99.90
15967;DHT22;15175;48.154;11.534;2023-08-24T03:48:14;24.10;99.90
15967;DHT22;15175;48.154;11.534;2023-08-24T03:50:41;24.10;99.90
15967;DHT22;15175;48.154;11.534;2023-08-24T03:53:09;24.10;99.90
15967;DHT22;15175;48.154;11.534;2023-08-24T03:55:36;24.00;99.90
15967;DHT22;15175;48.154;11.534;2023-08-24T03:58:04;23.90;99.90
15967;DHT22;15175;48.154;11.534;2023-08-24T04:00:32;23.90;99.90
15967;DHT22;15175;48.154;11.534;2023-08-24T04:03:01;23.90;99.90
15967;DHT22;15175;48.154;11.534;2023-08-24T04:05:28;23.90;99.90
15967;DHT22;15175;48.154;11.534;2023-08-24T04:07:55;24.00;99.90
15967;DHT22;15175;48.154;11.534;2023-08-24T04:10:24;23.90;99.90
15967;DHT22;15175;48.154;11.534;2023-08-24T04:12:51;23.90;99.90
15967;DHT22;15175;48.154;11.534;2023-08-24T04:15:19;23.90;99.90
15967;DHT22;15175;48.154;11.534;2023-08-24T04:17:48;23.90;99.90
15967;DHT22;15175;48.154;11.534;2023-08-24T04:20:16;23.80;99.90
15967;DHT22;15175;48.154;11.534;2023-08-24T04:22:43;23.80;99.90
15967;DHT22;15175;48.154;11.534;2023-08-24T04:25:10;23.80;99.90
15967;DHT22;15175;48.154;11.534;2023-08-24T04:27:37;23.80;99.90
15967;DHT22;15175;48.154;11.534;2023-08-24T04:30:06;23.80;99.90
15967;DHT22;15175;48.154;11.534;2023-08-24T04:32:37;23.80;99.90
15967;DHT22;15175;48.154;11.534;2023-08-24T04:35:06;23.80;99.90
15967;DHT22;15175;48.154;11.534;2023-08-24T04:37:34;23.80;99.90
15967;DHT22;15175;48.154;11.534;2023-08-24T04:40:03;23.80;99.90
15967;DHT22;15175;48.154;11.534;2023-08-24T04:42:33;23.80;99.90
15967;DHT22;15175;48.154;11.534;2023-08-24T04:45:00;23.80;99.90
15967;DHT22;15175;48.154;11.534;2023-08-24T04:47:27;23.80;99.90
15967;DHT22;15175;48.154;11.534;2023-08-24T04:49:54;23.80;99.90
15967;DHT22;15175;48.154;11.534;2023-08-24T04:52:22;23.80;99.90
15967;DHT22;15175;48.154;11.534;2023-08-24T04:54:50;23.70;99.90
15967;DHT22;15175;48.154;11.534;2023-08-24T04:57:17;23.60;99.90
15967;DHT22;15175;48.154;11.534;2023-08-24T04:59:44;23.60;99.90
15967;DHT22;15175;48.154;11.534;2023-08-24T05:02:11;23.60;99.90
15967;DHT22;15175;48.154;11.534;2023-08-24T05:04:38;23.60;99.90
15967;DHT22;15175;48.154;11.534;2023-08-24T05:07:05;23.60;99.90
15967;DHT22;15175;48.154;11.534;2023-08-24T05:09:33;23.50;99.90
15967;DHT22;15175;48.154;11.534;2023-08-24T05:12:00;23.50;99.90
15967;DHT22;15175;48.154;11.534;2023-08-24T05:14:27;23.50;99.90
15967;DHT22;15175;48.154;11.534;2023-08-24T05:16:54;23.50;99.90
15967;DHT22;15175;48.154;11.534;2023-08-24T05:19:22;23.50;99.90
15967;DHT22;15175;48.154;11.534;2023-08-24T05:21:49;23.50;99.90
15967;DHT22;15175;48.154;11.534;2023-08-24T05:24:16;23.50;99.90
15967;DHT22;15175;48.154;11.534;2023-08-24T05:26:44;23.60;99.90
15967;DHT22;15175;48.154;11.534;2023-08-24T05:29:11;23.70;99.90
15967;DHT22;15175;48.154;11.534;2023-08-24T05:31:38;23.70;99.90
15967;DHT22;15175;48.154;11.534;2023-08-24T05:34:05;23.80;99.90
15967;DHT22;15175;48.154;11.534;2023-08-24T05:36:32;23.80;99.90
15967;DHT22;15175;48.154;11.534;2023-08-24T05:38:59;24.00;99.90
15967;DHT22;15175;48.154;11.534;2023-08-24T05:41:26;24.00;99.90
15967;DHT22;15175;48.154;11.534;2023-08-24T05:43:55;24.00;99.90
15967;DHT22;15175;48.154;11.534;2023-08-24T05:46:23;24.30;99.90
15967;DHT22;15175;48.154;11.534;2023-08-24T05:48:50;24.50;99.90
15967;DHT22;15175;48.154;11.534;2023-08-24T05:51:17;24.80;99.90
15967;DHT22;15175;48.154;11.534;2023-08-24T05:53:44;25.00;99.90
15967;DHT22;15175;48.154;11.534;2023-08-24T05:56:11;25.30;99.90
15967;DHT22;15175;48.154;11.534;2023-08-24T05:58:38;25.60;99.90
15967;DHT22;15175;48.154;11.534;2023-08-24T06:01:06;25.90;99.90
15967;DHT22;15175;48.154;11.534;2023-08-24T06:03:34;25.90;99.90
15967;DHT22;15175;48.154;11.534;2023-08-24T06:06:02;26.10;99.90
15967;DHT22;15175;48.154;11.534;2023-08-24T06:08:30;26.20;99.90
15967;DHT22;15175;48.154;11.534;2023-08-24T06:10:57;26.30;99.90
15967;DHT22;15175;48.154;11.534;2023-08-24T06:13:24;26.50;99.90
15967;DHT22;15175;48.154;11.534;2023-08-24T06:15:52;26.80;99.90
15967;DHT22;15175;48.154;11.534;2023-08-24T06:18:21;27.00;99.90
15967;DHT22;15175;48.154;11.534;2023-08-24T06:20:49;27.10;99.90
15967;DHT22;15175;48.154;11.534;2023-08-24T06:23:16;27.40;99.90
15967;DHT22;15175;48.154;11.534;2023-08-24T06:25:44;27.50;99.90
15967;DHT22;15175;48.154;11.534;2023-08-24T06:28:11;27.50;99.90
15967;DHT22;15175;48.154;11.534;2023-08-24T06:30:39;27.40;99.90
15967;DHT22;15175;48.154;11.534;2023-08-24T06:33:06;27.40;99.90
15967;DHT22;15175;48.154;11.534;2023-08-24T06:35:35;27.50;99.90
15967;DHT22;15175;48.154;11.534;2023-08-24T06:38:03;27.70;99.90
15967;DHT22;15175;48.154;11.534;2023-08-24T06:40:30;27.80;99.90
15967;DHT22;15175;48.154;11.534;2023-08-24T06:42:57;27.90;99.90
15967;DHT22;15175;48.154;11.534;2023-08-24T06:45:25;27.70;99.90
15967;DHT22;15175;48.154;11.534;2023-08-24T06:47:52;27.60;99.90
15967;DHT22;15175;48.154;11.534;2023-08-24T06:50:19;27.40;99.90
15967;DHT22;15175;48.154;11.534;2023-08-24T06:52:48;27.60;99.90
15967;DHT22;15175;48.154;11.534;2023-08-24T06:55:15;27.80;99.90
15967;DHT22;15175;48.154;11.534;2023-08-24T06:57:42;27.70;99.90
15967;DHT22;15175;48.154;11.534;2023-08-24T07:00:10;28.00;99.90
15967;DHT22;15175;48.154;11.534;2023-08-24T07:02:40;28.50;99.90
15967;DHT22;15175;48.154;11.534;2023-08-24T07:05:08;28.50;99.90
15967;DHT22;15175;48.154;11.534;2023-08-24T07:07:35;28.70;99.90
15967;DHT22;15175;48.154;11.534;2023-08-24T07:10:04;28.80;99.90
15967;DHT22;15175;48.154;11.534;2023-08-24T07:12:32;29.40;99.90
15967;DHT22;15175;48.154;11.534;2023-08-24T07:14:59;29.50;99.90
15967;DHT22;15175;48.154;11.534;2023-08-24T07:17:26;29.70;99.90
15967;DHT22;15175;48.154;11.534;2023-08-24T07:19:53;29.90;99.90
15967;DHT22;15175;48.154;11.534;2023-08-24T07:22:20;30.20;99.90
15967;DHT22;15175;48.154;11.534;2023-08-24T07:24:47;29.60;99.90
15967;DHT22;15175;48.154;11.534;2023-08-24T07:27:19;29.70;99.90
15967;DHT22;15175;48.154;11.534;2023-08-24T07:29:46;29.90;99.90
15967;DHT22;15175;48.154;11.534;2023-08-24T07:32:14;30.30;99.90
15967;DHT22;15175;48.154;11.534;2023-08-24T07:34:41;30.60;99.90
15967;DHT22;15175;48.154;11.534;2023-08-24T07:37:08;30.70;99.90
15967;DHT22;15175;48.154;11.534;2023-08-24T07:39:35;30.70;99.90
15967;DHT22;15175;48.154;11.534;2023-08-24T07:42:02;30.60;99.90
15967;DHT22;15175;48.154;11.534;2023-08-24T07:44:31;30.20;99.90
15967;DHT22;15175;48.154;11.534;2023-08-24T07:46:58;30.20;99.90
15967;DHT22;15175;48.154;11.534;2023-08-24T07:49:25;30.20;99.90
15967;DHT22;15175;48.154;11.534;2023-08-24T07:51:52;29.50;99.90
15967;DHT22;15175;48.154;11.534;2023-08-24T07:54:19;29.90;99.90
15967;DHT22;15175;48.154;11.534;2023-08-24T07:56:46;30.20;99.90
15967;DHT22;15175;48.154;11.534;2023-08-24T07:59:13;30.40;99.90
15967;DHT22;15175;48.154;11.534;2023-08-24T08:01:41;30.20;99.90
15967;DHT22;15175;48.154;11.534;2023-08-24T08:04:09;30.70;99.90
15967;DHT22;15175;48.154;11.534;2023-08-24T08:06:36;31.30;99.90
15967;DHT22;15175;48.154;11.534;2023-08-24T08:09:03;31.60;99.90
15967;DHT22;15175;48.154;11.534;2023-08-24T08:11:30;31.50;99.90
15967;DHT22;15175;48.154;11.534;2023-08-24T08:13:57;31.10;99.90
15967;DHT22;15175;48.154;11.534;2023-08-24T08:16:24;31.10;99.90
15967;DHT22;15175;48.154;11.534;2023-08-24T08:18:52;30.90;99.90
15967;DHT22;15175;48.154;11.534;2023-08-24T08:21:20;31.00;99.90
15967;DHT22;15175;48.154;11.534;2023-08-24T08:23:48;31.70;99.90
15967;DHT22;15175;48.154;11.534;2023-08-24T08:26:16;32.30;99.90
15967;DHT22;15175;48.154;11.534;2023-08-24T08:28:43;31.90;99.90
15967;DHT22;15175;48.154;11.534;2023-08-24T08:31:10;32.30;99.90
15967;DHT22;15175;48.154;11.534;2023-08-24T08:33:37;32.80;99.30
15967;DHT22;15175;48.154;11.534;2023-08-24T08:36:05;33.00;98.90
15967;DHT22;15175;48.154;11.534;2023-08-24T08:38:32;33.10;98.40
15967;DHT22;15175;48.154;11.534;2023-08-24T08:41:03;32.70;99.00
15967;DHT22;15175;48.154;11.534;2023-08-24T08:43:30;32.80;99.00
15967;DHT22;15175;48.154;11.534;2023-08-24T08:45:58;33.10;98.50
15967;DHT22;15175;48.154;11.534;2023-08-24T08:48:28;33.30;98.40
15967;DHT22;15175;48.154;11.534;2023-08-24T08:50:58;33.60;97.80
15967;DHT22;15175;48.154;11.534;2023-08-24T08:53:28;33.60;97.70
15967;DHT22;15175;48.154;11.534;2023-08-24T08:55:55;33.50;97.70
15967;DHT22;15175;48.154;11.534;2023-08-24T08:58:29;33.40;97.90
15967;DHT22;15175;48.154;11.534;2023-08-24T09:00:58;33.40;97.70
15967;DHT22;15175;48.154;11.534;2023-08-24T09:03:26;33.50;97.70
15967;DHT22;15175;48.154;11.534;2023-08-24T09:05:56;33.40;97.60
15967;DHT22;15175;48.154;11.534;2023-08-24T09:08:24;33.20;97.70
15967;DHT22;15175;48.154;11.534;2023-08-24T09:10:53;33.30;97.70
15967;DHT22;15175;48.154;11.534;2023-08-24T09:13:21;33.20;97.80
15967;DHT22;15175;48.154;11.534;2023-08-24T09:15:51;33.40;97.60
15967;DHT22;15175;48.154;11.534;2023-08-24T09:18:19;33.40;97.60
15967;DHT22;15175;48.154;11.534;2023-08-24T09:20:47;33.50;97.20
15967;DHT22;15175;48.154;11.534;2023-08-24T09:23:17;33.40;97.00
15967;DHT22;15175;48.154;11.534;2023-08-24T09:25:45;33.40;97.30
15967;DHT22;15175;48.154;11.534;2023-08-24T09:28:22;33.40;97.40
15967;DHT22;15175;48.154;11.534;2023-08-24T09:30:52;33.20;97.50
15967;DHT22;15175;48.154;11.534;2023-08-24T09:33:20;32.80;97.90
15967;DHT22;15175;48.154;11.534;2023-08-24T09:35:52;32.60;98.00
15967;DHT22;15175;48.154;11.534;2023-08-24T09:38:22;32.70;98.40
15967;DHT22;15175;48.154;11.534;2023-08-24T09:40:51;32.80;97.60
15967;DHT22;15175;48.154;11.534;2023-08-24T09:43:20;32.60;97.90
15967;DHT22;15175;48.154;11.534;2023-08-24T09:45:49;32.20;98.60
15967;DHT22;15175;48.154;11.534;2023-08-24T09:48:16;31.90;98.90
15967;DHT22;15175;48.154;11.534;2023-08-24T09:50:44;31.90;99.10
15967;DHT22;15175;48.154;11.534;2023-08-24T09:53:16;31.90;98.40
15967;DHT22;15175;48.154;11.534;2023-08-24T09:55:46;31.90;98.70
15967;DHT22;15175;48.154;11.534;2023-08-24T09:58:15;32.10;98.80
15967;DHT22;15175;48.154;11.534;2023-08-24T10:00:46;32.40;98.30
15967;DHT22;15175;48.154;11.534;2023-08-24T10:03:16;32.70;97.90
15967;DHT22;15175;48.154;11.534;2023-08-24T10:05:50;33.00;97.80
15967;DHT22;15175;48.154;11.534;2023-08-24T10:08:21;33.30;97.30
15967;DHT22;15175;48.154;11.534;2023-08-24T10:10:53;33.40;96.40
15967;DHT22;15175;48.154;11.534;2023-08-24T10:13:26;33.20;96.70
15967;DHT22;15175;48.154;11.534;2023-08-24T10:15:58;33.30;96.60
15967;DHT22;15175;48.154;11.534;2023-08-24T10:18:26;33.50;96.50
15967;DHT22;15175;48.154;11.534;2023-08-24T10:20:53;33.80;96.10
15967;DHT22;15175;48.154;11.534;2023-08-24T10:23:22;34.10;95.80
15967;DHT22;15175;48.154;11.534;2023-08-24T10:25:51;34.40;95.40
15967;DHT22;15175;48.154;11.534;2023-08-24T10:28:20;34.40;94.90
15967;DHT22;15175;48.154;11.534;2023-08-24T10:30:47;34.10;94.60
15967;DHT22;15175;48.154;11.534;2023-08-24T10:33:16;33.90;95.00
15967;DHT22;15175;48.154;11.534;2023-08-24T10:35:45;34.00;94.90
15967;DHT22;15175;48.154;11.534;2023-08-24T10:38:26;33.90;94.20
15967;DHT22;15175;48.154;11.534;2023-08-24T10:40:54;33.90;94.60
15967;DHT22;15175;48.154;11.534;2023-08-24T10:43:22;33.60;94.00
15967;DHT22;15175;48.154;11.534;2023-08-24T10:46:00;33.70;93.90
15967;DHT22;15175;48.154;11.534;2023-08-24T10:48:29;34.30;94.50
15967;DHT22;15175;48.154;11.534;2023-08-24T10:51:18;34.70;94.20
15967;DHT22;15175;48.154;11.534;2023-08-24T10:53:47;34.90;93.90
15967;DHT22;15175;48.154;11.534;2023-08-24T10:56:16;34.90;92.20
15967;DHT22;15175;48.154;11.534;2023-08-24T10:58:45;34.70;91.10
15967;DHT22;15175;48.154;11.534;2023-08-24T11:01:15;34.40;91.00
15967;DHT22;15175;48.154;11.534;2023-08-24T11:03:51;34.10;93.20
15967;DHT22;15175;48.154;11.534;2023-08-24T11:06:19;34.00;93.00
15967;DHT22;15175;48.154;11.534;2023-08-24T11:08:46;33.90;92.40
15967;DHT22;15175;48.154;11.534;2023-08-24T11:11:20;34.20;93.00
15967;DHT22;15175;48.154;11.534;2023-08-24T11:14:15;34.50;92.30
15967;DHT22;15175;48.154;11.534;2023-08-24T11:16:44;34.70;92.70
15967;DHT22;15175;48.154;11.534;2023-08-24T11:19:13;35.00;92.70
15967;DHT22;15175;48.154;11.534;2023-08-24T11:21:41;35.50;92.50
15967;DHT22;15175;48.154;11.534;2023-08-24T11:24:09;35.50;92.60
15967;DHT22;15175;48.154;11.534;2023-08-24T11:26:40;35.60;89.60
15967;DHT22;15175;48.154;11.534;2023-08-24T11:29:08;35.50;86.50
15967;DHT22;15175;48.154;11.534;2023-08-24T11:31:35;35.70;87.50
15967;DHT22;15175;48.154;11.534;2023-08-24T11:34:03;36.00;90.50
15967;DHT22;15175;48.154;11.534;2023-08-24T11:36:31;36.10;90.80
15967;DHT22;15175;48.154;11.534;2023-08-24T11:39:15;36.30;88.60
15967;DHT22;15175;48.154;11.534;2023-08-24T11:41:43;36.50;83.50
15967;DHT22;15175;48.154;11.534;2023-08-24T11:44:11;36.40;81.30
15967;DHT22;15175;48.154;11.534;2023-08-24T11:46:38;36.00;81.80
15967;DHT22;15175;48.154;11.534;2023-08-24T11:49:06;35.90;80.90
15967;DHT22;15175;48.154;11.534;2023-08-24T11:51:36;35.80;78.90
15967;DHT22;15175;48.154;11.534;2023-08-24T11:54:03;35.70;78.80
15967;DHT22;15175;48.154;11.534;2023-08-24T11:56:31;35.90;78.60
15967;DHT22;15175;48.154;11.534;2023-08-24T11:58:58;36.30;75.00
15967;DHT22;15175;48.154;11.534;2023-08-24T12:01:26;36.20;75.70
15967;DHT22;15175;48.154;11.534;2023-08-24T12:03:54;36.30;76.30
15967;DHT22;15175;48.154;11.534;2023-08-24T12:06:21;36.60;75.60
15967;DHT22;15175;48.154;11.534;2023-08-24T12:08:50;36.50;73.70
15967;DHT22;15175;48.154;11.534;2023-08-24T12:11:19;36.30;70.00
15967;DHT22;15175;48.154;11.534;2023-08-24T12:13:48;36.50;68.40
15967;DHT22;15175;48.154;11.534;2023-08-24T12:16:15;36.60;69.80
15967;DHT22;15175;48.154;11.534;2023-08-24T12:18:47;36.80;70.90
15967;DHT22;15175;48.154;11.534;2023-08-24T12:21:15;36.70;68.80
15967;DHT22;15175;48.154;11.534;2023-08-24T12:23:42;36.60;67.40
15967;DHT22;15175;48.154;11.534;2023-08-24T12:26:18;36.80;67.70
15967;DHT22;15175;48.154;11.534;2023-08-24T12:28:49;36.50;66.80
15967;DHT22;15175;48.154;11.534;2023-08-24T12:31:17;36.30;66.80
15967;DHT22;15175;48.154;11.534;2023-08-24T12:33:45;36.30;64.90
15967;DHT22;15175;48.154;11.534;2023-08-24T12:36:12;36.40;67.40
15967;DHT22;15175;48.154;11.534;2023-08-24T12:38:39;36.40;66.40
15967;DHT22;15175;48.154;11.534;2023-08-24T12:41:08;36.10;66.80
15967;DHT22;15175;48.154;11.534;2023-08-24T12:43:36;36.30;67.30
15967;DHT22;15175;48.154;11.534;2023-08-24T12:46:04;36.50;67.00
15967;DHT22;15175;48.154;11.534;2023-08-24T12:48:31;36.40;67.50
15967;DHT22;15175;48.154;11.534;2023-08-24T12:50:58;36.30;66.80
15967;DHT22;15175;48.154;11.534;2023-08-24T12:53:25;36.10;68.50
15967;DHT22;15175;48.154;11.534;2023-08-24T12:55:52;36.00;69.40
15967;DHT22;15175;48.154;11.534;2023-08-24T12:58:19;36.10;67.20
15967;DHT22;15175;48.154;11.534;2023-08-24T13:00:47;36.20;67.90
15967;DHT22;15175;48.154;11.534;2023-08-24T13:03:15;36.00;69.20
15967;DHT22;15175;48.154;11.534;2023-08-24T13:05:42;36.00;69.60
15967;DHT22;15175;48.154;11.534;2023-08-24T13:08:09;36.00;70.60
15967;DHT22;15175;48.154;11.534;2023-08-24T13:10:36;36.10;71.00
15967;DHT22;15175;48.154;11.534;2023-08-24T13:13:03;36.20;71.10
15967;DHT22;15175;48.154;11.534;2023-08-24T13:15:30;36.20;75.10
15967;DHT22;15175;48.154;11.534;2023-08-24T13:17:59;36.10;74.40
15967;DHT22;15175;48.154;11.534;2023-08-24T13:20:26;35.60;75.00
15967;DHT22;15175;48.154;11.534;2023-08-24T13:22:53;35.50;75.20
15967;DHT22;15175;48.154;11.534;2023-08-24T13:25:20;35.60;75.50
15967;DHT22;15175;48.154;11.534;2023-08-24T13:27:47;35.90;75.10
15967;DHT22;15175;48.154;11.534;2023-08-24T13:30:14;35.90;75.80
15967;DHT22;15175;48.154;11.534;2023-08-24T13:32:41;36.10;75.80
15967;DHT22;15175;48.154;11.534;2023-08-24T13:35:10;36.30;75.50
15967;DHT22;15175;48.154;11.534;2023-08-24T13:37:37;36.60;77.10
15967;DHT22;15175;48.154;11.534;2023-08-24T13:40:05;36.30;77.40
15967;DHT22;15175;48.154;11.534;2023-08-24T13:42:33;35.90;78.70
15967;DHT22;15175;48.154;11.534;2023-08-24T13:45:00;35.70;79.10
15967;DHT22;15175;48.154;11.534;2023-08-24T13:47:28;35.60;79.90
15967;DHT22;15175;48.154;11.534;2023-08-24T13:49:55;35.50;80.70
15967;DHT22;15175;48.154;11.534;2023-08-24T13:52:24;35.40;80.90
15967;DHT22;15175;48.154;11.534;2023-08-24T13:54:51;35.20;81.10
15967;DHT22;15175;48.154;11.534;2023-08-24T13:57:18;35.00;81.50
15967;DHT22;15175;48.154;11.534;2023-08-24T13:59:45;34.80;82.40
15967;DHT22;15175;48.154;11.534;2023-08-24T14:02:12;34.60;83.10
15967;DHT22;15175;48.154;11.534;2023-08-24T14:04:40;34.60;83.70
15967;DHT22;15175;48.154;11.534;2023-08-24T14:07:07;34.40;84.10
15967;DHT22;15175;48.154;11.534;2023-08-24T14:09:36;34.40;84.40
15967;DHT22;15175;48.154;11.534;2023-08-24T14:12:03;34.30;84.20
15967;DHT22;15175;48.154;11.534;2023-08-24T14:14:30;34.10;84.80
15967;DHT22;15175;48.154;11.534;2023-08-24T14:16:58;34.10;84.50
15967;DHT22;15175;48.154;11.534;2023-08-24T14:19:25;34.00;84.20
15967;DHT22;15175;48.154;11.534;2023-08-24T14:21:52;34.00;83.50
15967;DHT22;15175;48.154;11.534;2023-08-24T14:24:19;33.90;85.10
15967;DHT22;15175;48.154;11.534;2023-08-24T14:26:48;34.00;85.70
15967;DHT22;15175;48.154;11.534;2023-08-24T14:29:15;34.10;86.10
15967;DHT22;15175;48.154;11.534;2023-08-24T14:31:43;34.20;85.90
15967;DHT22;15175;48.154;11.534;2023-08-24T14:34:10;34.10;86.10
15967;DHT22;15175;48.154;11.534;2023-08-24T14:36:37;34.00;86.30
15967;DHT22;15175;48.154;11.534;2023-08-24T14:39:04;34.00;87.00
15967;DHT22;15175;48.154;11.534;2023-08-24T14:41:31;34.00;87.40
15967;DHT22;15175;48.154;11.534;2023-08-24T14:43:59;34.00;87.80
15967;DHT22;15175;48.154;11.534;2023-08-24T14:46:26;34.00;88.00
15967;DHT22;15175;48.154;11.534;2023-08-24T14:48:53;34.00;88.10
15967;DHT22;15175;48.154;11.534;2023-08-24T14:51:20;34.00;88.30
15967;DHT22;15175;48.154;11.534;2023-08-24T14:53:47;33.90;88.50
15967;DHT22;15175;48.154;11.534;2023-08-24T14:56:15;33.90;88.80
15967;DHT22;15175;48.154;11.534;2023-08-24T14:58:42;33.80;89.30
15967;DHT22;15175;48.154;11.534;2023-08-24T15:01:10;33.80;89.60
15967;DHT22;15175;48.154;11.534;2023-08-24T15:03:39;33.60;90.20
15967;DHT22;15175;48.154;11.534;2023-08-24T15:06:06;33.60;90.30
15967;DHT22;15175;48.154;11.534;2023-08-24T15:08:34;33.60;90.50
15967;DHT22;15175;48.154;11.534;2023-08-24T15:11:02;33.60;90.20
15967;DHT22;15175;48.154;11.534;2023-08-24T15:13:29;33.60;90.60
15967;DHT22;15175;48.154;11.534;2023-08-24T15:15:57;33.60;90.60
15967;DHT22;15175;48.154;11.534;2023-08-24T15:18:26;33.60;90.80
15967;DHT22;15175;48.154;11.534;2023-08-24T15:20:53;33.70;90.90